Harp Township, Illinois
Current Conditions -  °F | °C
As of 5:55 PM on Sunday 21 Dec 2014 (Local Time) from KAAA Reporting Station
Clear Clear  
Wind Chill: 29°   Ceiling: Unl
Heat Index: 36°   Visibility: 7mi
Dew Point: 32°   Wind: 8mph
Humidity: 87%   Direction: 130°SE
Pressure: 30.04"   Gusts: NA
Location:  40.143°N, 88.9637°W
Report Text: KAAA 212355Z AUTO 13007KT 7SM CLR 02/00 A3004 RMK AO2 T00200000 10033 20020
Loading
Personal Weather Stations






























Interactive Weather Map New forecast layout! Learn more

10-Day Weather Forecast

Advertisements
Track Severe Weather on mobile